Terminal Aerodrome Forecast
Issued by NWS Louisville, KY

Home | Current Version | Previous Version | Text Only | Print | Product List | Glossary On
Versions: 1 2 3 4 5 6 7 8 9 10 11 12 13 14 15 16 17 18 19 20 21
604
FTUS43 KLMK 292326
TAFSDF
TAF
KSDF 292326Z 3000/3106 12010KT P6SM FEW190
     FM301300 16011G17KT P6SM BKN060
     FM301700 18017G25KT P6SM VCSH OVC035
     FM310100 21014KT P6SM VCTS OVC035CB=

USA.gov is the U.S. government's official web portal to all federal, state and local government web resources and services.